Time;durP1;ratioP1;P1;durP2;ratioP2;P2;SDS_P1;SDS_P2;PMS_P1;PMS_P2;Temp;Humidity;BMP_temperature;BMP_pressure;BME280_temperature;BME280_humidity;BME280_pressure;Samples;Min_cycle;Max_cycle;Signal;HPM_P1;HPM_P2
2023/11/03 00:01:16;;;;;;;2.22;1.00;;;8.60;97.10;;;;;;5094331;28;20185;-75
2023/11/03 00:03:43;;;;;;;2.13;0.85;;;8.60;97.20;;;;;;5091611;28;20197;-75
2023/11/03 00:06:10;;;;;;;3.15;1.20;;;8.70;97.30;;;;;;5093019;28;20232;-75
2023/11/03 00:08:37;;;;;;;2.50;1.00;;;8.70;97.00;;;;;;5093981;28;20190;-75
2023/11/03 00:11:04;;;;;;;2.17;0.85;;;8.70;96.50;;;;;;5094301;28;20215;-75
2023/11/03 00:13:34;;;;;;;3.28;0.90;;;8.70;96.40;;;;;;5093856;28;20590;-75
2023/11/03 00:16:02;;;;;;;2.30;1.00;;;8.70;96.60;;;;;;5093689;28;20271;-75
2023/11/03 00:18:31;;;;;;;3.00;1.65;;;8.70;96.90;;;;;;5093508;28;20667;-75
2023/11/03 00:21:00;;;;;;;3.20;1.98;;;8.70;96.80;;;;;;5093848;28;20349;-75
2023/11/03 00:23:26;;;;;;;2.88;1.30;;;8.70;96.70;;;;;;5093735;28;20198;-74
2023/11/03 00:25:53;;;;;;;3.22;1.30;;;8.60;97.00;;;;;;5093440;28;20276;-75
2023/11/03 00:28:22;;;;;;;3.47;1.33;;;8.60;97.20;;;;;;5093976;28;20306;-75
2023/11/03 00:30:50;;;;;;;2.95;1.50;;;8.60;97.10;;;;;;5094123;28;20192;-75
2023/11/03 00:33:17;;;;;;;2.75;1.40;;;8.60;97.50;;;;;;5093835;28;20246;-75
2023/11/03 00:35:46;;;;;;;2.25;1.08;;;8.60;97.60;;;;;;5092344;28;20634;-75
2023/11/03 00:38:13;;;;;;;2.75;1.00;;;8.60;97.20;;;;;;5091713;28;20210;-75
2023/11/03 00:40:40;;;;;;;2.55;1.23;;;8.60;97.20;;;;;;5093650;28;20189;-75
2023/11/03 00:43:07;;;;;;;2.00;0.90;;;8.60;97.30;;;;;;5094101;28;20198;-75
2023/11/03 00:45:35;;;;;;;2.10;1.00;;;8.70;97.30;;;;;;5093629;28;20246;-75
2023/11/03 00:48:02;;;;;;;2.10;1.00;;;8.70;97.10;;;;;;5093311;28;20189;-75
2023/11/03 00:50:29;;;;;;;4.00;1.00;;;8.60;97.40;;;;;;5094143;28;20196;-75
2023/11/03 00:52:57;;;;;;;2.25;1.00;;;8.70;97.60;;;;;;5093870;28;20193;-75
2023/11/03 00:55:25;;;;;;;2.05;1.00;;;8.70;97.60;;;;;;5093768;28;20243;-75
2023/11/03 00:57:52;;;;;;;2.38;1.05;;;8.70;97.50;;;;;;5093689;28;20213;-75
2023/11/03 01:00:19;;;;;;;3.72;1.38;;;8.70;97.50;;;;;;5094082;28;20266;-75
2023/11/03 01:02:46;;;;;;;2.53;1.00;;;8.70;97.30;;;;;;5093983;28;20190;-75
2023/11/03 01:05:14;;;;;;;2.10;1.00;;;8.70;97.40;;;;;;5093970;28;20246;-75
2023/11/03 01:07:41;;;;;;;2.20;1.10;;;8.80;97.50;;;;;;5093618;28;20533;-75
2023/11/03 01:10:10;;;;;;;2.50;1.00;;;8.80;97.40;;;;;;5093793;28;20198;-75
2023/11/03 01:12:37;;;;;;;2.60;1.00;;;8.80;97.20;;;;;;5094007;28;20204;-75
2023/11/03 01:15:06;;;;;;;2.90;1.25;;;8.80;97.10;;;;;;5093939;28;20228;-75
2023/11/03 01:17:35;;;;;;;5.25;2.83;;;8.70;97.00;;;;;;5093517;28;20271;-75
2023/11/03 01:20:02;;;;;;;3.05;1.70;;;8.70;97.10;;;;;;5093730;28;20220;-75
2023/11/03 01:22:29;;;;;;;3.60;1.70;;;8.60;97.40;;;;;;5093137;28;20686;-75
2023/11/03 01:24:59;;;;;;;3.17;1.20;;;8.60;97.50;;;;;;5093885;28;20250;-75
2023/11/03 01:27:28;;;;;;;2.72;1.30;;;8.70;97.70;;;;;;5093630;28;20280;-75
2023/11/03 01:29:55;;;;;;;2.53;1.27;;;8.70;97.80;;;;;;5093384;28;20193;-75
2023/11/03 01:32:22;;;;;;;3.10;1.25;;;8.70;98.00;;;;;;5093709;28;20376;-75
2023/11/03 01:34:51;;;;;;;2.75;1.38;;;8.80;98.10;;;;;;5093085;28;20247;-75
2023/11/03 01:37:18;;;;;;;3.58;2.00;;;8.80;98.10;;;;;;5093132;28;20223;-75
2023/11/03 01:39:45;;;;;;;2.35;1.10;;;8.80;98.20;;;;;;5093014;28;20640;-75
2023/11/03 01:42:12;;;;;;;2.83;1.30;;;8.80;98.20;;;;;;5093544;28;20289;-75
2023/11/03 01:44:41;;;;;;;2.35;1.23;;;8.80;98.20;;;;;;5093616;28;20200;-75
2023/11/03 01:47:08;;;;;;;2.40;1.20;;;8.80;98.20;;;;;;5093233;28;20251;-75
2023/11/03 01:49:38;;;;;;;2.33;1.40;;;8.80;98.20;;;;;;5093216;28;20239;-75
2023/11/03 01:52:05;;;;;;;2.92;1.15;;;8.80;98.30;;;;;;5093200;28;20602;-75
2023/11/03 01:54:33;;;;;;;2.00;0.98;;;8.80;98.20;;;;;;5093528;28;20221;-75
2023/11/03 01:57:00;;;;;;;2.47;1.35;;;8.90;98.10;;;;;;5092946;28;20255;-75
2023/11/03 01:59:27;;;;;;;2.20;1.00;;;8.80;98.10;;;;;;5093397;28;20193;-75
2023/11/03 02:01:56;;;;;;;2.80;2.05;;;8.90;98.10;;;;;;5092799;28;20186;-75
2023/11/03 02:04:24;;;;;;;2.47;1.30;;;8.90;98.00;;;;;;5092999;28;20277;-75
2023/11/03 02:06:51;;;;;;;8.38;1.40;;;8.90;97.80;;;;;;5093412;28;20229;-75
2023/11/03 02:09:19;;;;;;;2.00;0.80;;;8.90;97.60;;;;;;5092937;28;20189;-75
2023/11/03 02:11:48;;;;;;;2.78;1.20;;;8.90;97.50;;;;;;5093242;28;20192;-75
2023/11/03 02:14:16;;;;;;;2.47;1.00;;;8.90;97.30;;;;;;5093303;28;20208;-75
2023/11/03 02:16:43;;;;;;;2.13;1.15;;;8.90;97.30;;;;;;5092930;28;20197;-75
2023/11/03 02:19:12;;;;;;;3.78;1.30;;;8.90;97.30;;;;;;5093155;28;20194;-75
2023/11/03 02:21:39;;;;;;;2.40;1.30;;;8.90;97.20;;;;;;5093092;28;20178;-75
2023/11/03 02:24:09;;;;;;;4.32;1.15;;;8.90;97.20;;;;;;5092923;28;20194;-75
2023/11/03 02:26:36;;;;;;;2.35;1.30;;;8.80;97.00;;;;;;5092877;28;20193;-75
2023/11/03 02:29:05;;;;;;;4.57;1.60;;;8.80;96.60;;;;;;5092497;28;20185;-75
2023/11/03 02:31:32;;;;;;;3.65;1.70;;;8.80;97.00;;;;;;5095940;28;20611;-75
2023/11/03 02:34:00;;;;;;;2.85;1.60;;;8.80;97.20;;;;;;5096788;28;20239;-75
2023/11/03 02:36:27;;;;;;;2.80;1.63;;;8.80;97.10;;;;;;5096418;28;20276;-75
2023/11/03 02:38:55;;;;;;;2.20;1.30;;;8.70;97.10;;;;;;5096613;28;20213;-75
2023/11/03 02:41:23;;;;;;;2.70;1.40;;;8.70;97.40;;;;;;5096276;28;20273;-76
2023/11/03 02:43:52;;;;;;;2.50;1.20;;;8.70;97.50;;;;;;5096389;28;20209;-75
2023/11/03 02:46:19;;;;;;;3.28;1.48;;;8.70;97.50;;;;;;5096396;28;20706;-75
2023/11/03 02:48:46;;;;;;;2.30;1.05;;;8.70;97.30;;;;;;5096736;28;20242;-75
2023/11/03 02:51:13;;;;;;;3.13;1.52;;;8.70;97.30;;;;;;5096137;28;20655;-75
2023/11/03 02:53:40;;;;;;;2.25;0.98;;;8.70;97.30;;;;;;5096471;28;20280;-75
2023/11/03 02:56:07;;;;;;;2.67;1.40;;;8.70;97.40;;;;;;5096032;28;20193;-75
2023/11/03 02:58:38;;;;;;;2.55;1.60;;;8.80;96.90;;;;;;5095756;28;20262;-75
2023/11/03 03:01:08;;;;;;;2.50;1.30;;;8.70;96.60;;;;;;5096009;28;20227;-75
2023/11/03 03:03:35;;;;;;;2.35;1.05;;;8.60;96.90;;;;;;5096470;28;20276;-75
2023/11/03 03:06:02;;;;;;;2.97;1.80;;;8.50;97.00;;;;;;5095883;28;20189;-75
2023/11/03 03:08:29;;;;;;;6.70;1.55;;;8.60;97.20;;;;;;5096210;28;20251;-75
2023/11/03 03:10:56;;;;;;;3.22;1.30;;;8.50;97.20;;;;;;5095736;28;20239;-75
2023/11/03 03:13:23;;;;;;;2.70;0.93;;;8.50;97.30;;;;;;5095552;28;20195;-75
2023/11/03 03:15:51;;;;;;;3.95;1.15;;;8.60;97.10;;;;;;5095474;28;20190;-76
2023/11/03 03:18:19;;;;;;;2.38;1.25;;;8.60;96.90;;;;;;5095577;28;20262;-75
2023/11/03 03:20:46;;;;;;;2.15;1.27;;;8.60;96.70;;;;;;5095442;28;20221;-75
2023/11/03 03:23:14;;;;;;;2.42;1.23;;;8.60;96.60;;;;;;5095444;28;20189;-75
2023/11/03 03:25:41;;;;;;;3.10;1.27;;;8.60;96.80;;;;;;5095843;28;20193;-75
2023/11/03 03:28:11;;;;;;;3.40;2.00;;;8.60;96.80;;;;;;5095514;28;20194;-75
2023/11/03 03:30:38;;;;;;;3.92;2.38;;;8.60;97.00;;;;;;5095714;28;20186;-75
2023/11/03 03:33:07;;;;;;;3.38;1.73;;;8.60;97.10;;;;;;5095362;28;20189;-75
2023/11/03 03:35:34;;;;;;;3.25;1.40;;;8.60;97.40;;;;;;5094890;28;20201;-75
2023/11/03 03:38:01;;;;;;;9.35;1.67;;;8.60;97.60;;;;;;5095439;28;20276;-75
2023/11/03 03:40:28;;;;;;;3.65;1.42;;;8.70;97.70;;;;;;5095461;28;20250;-75
2023/11/03 03:42:57;;;;;;;3.97;1.42;;;8.70;97.60;;;;;;5094997;28;20190;-75
2023/11/03 03:45:23;;;;;;;3.00;1.40;;;8.70;97.30;;;;;;5095061;28;20242;-75
2023/11/03 03:47:50;;;;;;;3.50;1.35;;;8.80;97.10;;;;;;5095136;28;20193;-75
2023/11/03 03:50:19;;;;;;;2.40;1.50;;;8.80;96.90;;;;;;5095177;28;20593;-75
2023/11/03 03:52:46;;;;;;;3.85;1.48;;;8.80;96.70;;;;;;5095503;28;20208;-75
2023/11/03 03:55:13;;;;;;;2.25;1.10;;;8.90;96.60;;;;;;5095169;28;20590;-76
2023/11/03 03:57:41;;;;;;;2.45;1.15;;;8.80;96.30;;;;;;5094320;28;20266;-75
2023/11/03 04:00:08;;;;;;;2.25;1.20;;;8.80;96.30;;;;;;5094820;28;20189;-75
2023/11/03 04:02:36;;;;;;;3.45;1.60;;;8.80;96.40;;;;;;5094995;28;20524;-75
2023/11/03 04:05:03;;;;;;;2.00;1.00;;;8.80;96.60;;;;;;5094777;28;20189;-75
2023/11/03 04:07:32;;;;;;;3.20;1.70;;;8.80;96.60;;;;;;5094603;28;20284;-75
2023/11/03 04:09:59;;;;;;;2.20;0.88;;;8.80;96.70;;;;;;5094932;28;20216;-75
2023/11/03 04:12:27;;;;;;;8.15;1.58;;;8.90;96.40;;;;;;5094105;28;20318;-75
2023/11/03 04:14:54;;;;;;;5.60;1.10;;;8.80;96.40;;;;;;5094578;28;20200;-75
2023/11/03 04:17:21;;;;;;;3.30;1.27;;;8.80;96.40;;;;;;5094427;28;20194;-75
2023/11/03 04:19:48;;;;;;;8.27;1.20;;;8.80;96.30;;;;;;5094256;28;20282;-75
2023/11/03 04:22:16;;;;;;;4.55;1.27;;;8.80;96.00;;;;;;5094674;28;20194;-75
2023/11/03 04:24:44;;;;;;;2.83;1.00;;;8.80;95.60;;;;;;5094646;28;20200;-75
2023/11/03 04:27:11;;;;;;;2.00;0.88;;;8.80;95.40;;;;;;5094080;28;20197;-75
2023/11/03 04:29:41;;;;;;;2.08;0.80;;;8.80;95.00;;;;;;5094478;28;20197;-75
2023/11/03 04:32:08;;;;;;;2.50;1.10;;;8.70;94.60;;;;;;5094299;28;20178;-75
2023/11/03 04:34:35;;;;;;;3.75;1.00;;;8.70;94.50;;;;;;5093958;28;20217;-75
2023/11/03 04:37:02;;;;;;;3.08;1.05;;;8.70;94.20;;;;;;5094509;28;20528;-75
2023/11/03 04:39:29;;;;;;;2.50;0.95;;;8.70;94.10;;;;;;5093932;28;20222;-75
2023/11/03 04:41:58;;;;;;;2.50;1.58;;;8.70;93.90;;;;;;5094510;28;20217;-75
2023/11/03 04:44:25;;;;;;;3.05;1.30;;;8.70;94.00;;;;;;5093952;28;20189;-75
2023/11/03 04:46:52;;;;;;;4.30;1.45;;;8.70;93.80;;;;;;5093995;28;20652;-75
2023/11/03 04:49:21;;;;;;;4.30;1.00;;;8.70;93.20;;;;;;5094228;28;20619;-75
2023/11/03 04:51:49;;;;;;;3.42;0.90;;;8.70;93.00;;;;;;5093673;28;20278;-75
2023/11/03 04:54:16;;;;;;;3.40;1.23;;;8.70;92.80;;;;;;5093150;28;20195;-75
2023/11/03 04:56:45;;;;;;;3.33;1.60;;;8.70;92.00;;;;;;5094156;28;20526;-75
2023/11/03 04:59:14;;;;;;;2.90;1.38;;;8.70;91.80;;;;;;5093705;28;20216;-75
2023/11/03 05:01:41;;;;;;;6.32;1.08;;;8.70;91.90;;;;;;5093811;28;20190;-76
2023/11/03 05:04:08;;;;;;;4.07;1.50;;;8.70;91.70;;;;;;5093479;28;20229;-75
2023/11/03 05:06:35;;;;;;;3.88;1.90;;;8.70;91.40;;;;;;5093743;28;20229;-75
2023/11/03 05:09:02;;;;;;;3.72;1.55;;;8.70;90.90;;;;;;5093883;28;20528;-75
2023/11/03 05:11:30;;;;;;;5.10;1.73;;;8.70;90.30;;;;;;5093882;28;20190;-75
2023/11/03 05:13:57;;;;;;;3.75;1.00;;;8.70;90.20;;;;;;5093431;28;20206;-75
2023/11/03 05:16:25;;;;;;;5.18;1.40;;;8.70;90.70;;;;;;5093804;28;20189;-75
2023/11/03 05:18:52;;;;;;;4.38;1.08;;;8.70;90.30;;;;;;5093655;28;20211;-75
2023/11/03 05:21:19;;;;;;;5.45;1.23;;;8.70;90.00;;;;;;5093695;28;20243;-75
2023/11/03 05:23:46;;;;;;;11.85;1.88;;;8.70;89.20;;;;;;5093066;28;20200;-75
2023/11/03 05:26:14;;;;;;;2.10;0.90;;;8.70;88.20;;;;;;5093793;28;20186;-75
2023/11/03 05:28:41;;;;;;;2.10;0.73;;;8.80;87.00;;;;;;5093619;28;20559;-75
2023/11/03 05:31:08;;;;;;;2.80;0.90;;;8.70;87.40;;;;;;5093343;28;20193;-75
2023/11/03 05:33:37;;;;;;;2.00;0.88;;;8.80;86.70;;;;;;5093401;28;20182;-75
2023/11/03 05:36:05;;;;;;;2.25;0.98;;;8.80;86.90;;;;;;5093628;28;20238;-75
2023/11/03 05:38:31;;;;;;;1.92;0.70;;;8.80;86.50;;;;;;5093199;28;20213;-76
2023/11/03 05:40:59;;;;;;;2.40;1.02;;;8.80;87.30;;;;;;5093572;28;20189;-76
2023/11/03 05:43:26;;;;;;;1.90;0.85;;;8.80;88.20;;;;;;5093059;28;20181;-76
2023/11/03 05:45:53;;;;;;;2.67;0.90;;;8.80;88.20;;;;;;5093285;28;20194;-76
2023/11/03 05:48:21;;;;;;;3.03;1.13;;;8.80;88.60;;;;;;5093224;28;20189;-75
2023/11/03 05:50:49;;;;;;;4.20;0.98;;;8.80;88.90;;;;;;5093583;28;20242;-75
2023/11/03 05:53:16;;;;;;;1.90;0.82;;;8.80;88.60;;;;;;5093279;28;20591;-75
2023/11/03 05:55:43;;;;;;;2.97;1.05;;;8.80;88.30;;;;;;5093568;28;20217;-75
2023/11/03 05:58:10;;;;;;;4.63;1.38;;;8.80;88.80;;;;;;5092969;28;20213;-76
2023/11/03 06:00:37;;;;;;;4.07;0.90;;;8.80;90.00;;;;;;5093132;28;20185;-76
2023/11/03 06:03:04;;;;;;;2.97;1.15;;;8.80;90.00;;;;;;5092846;28;20239;-76
2023/11/03 06:05:31;;;;;;;3.05;1.02;;;8.80;90.30;;;;;;5095530;28;20185;-76
2023/11/03 06:08:00;;;;;;;3.20;1.10;;;8.80;90.30;;;;;;5096448;28;20235;-75
2023/11/03 06:10:27;;;;;;;4.00;0.95;;;8.80;90.20;;;;;;5097267;28;20285;-75
2023/11/03 06:12:54;;;;;;;2.05;0.95;;;8.80;90.10;;;;;;5096812;28;20189;-76
2023/11/03 06:15:21;;;;;;;3.28;1.10;;;8.80;89.80;;;;;;5097451;28;20194;-76
2023/11/03 06:17:48;;;;;;;2.50;1.10;;;8.80;89.40;;;;;;5096659;28;20190;-76
2023/11/03 06:20:15;;;;;;;3.00;1.02;;;8.80;89.90;;;;;;5097251;28;20249;-76
2023/11/03 06:22:42;;;;;;;3.33;1.10;;;8.80;90.10;;;;;;5096892;28;20190;-76
2023/11/03 06:25:11;;;;;;;7.95;1.27;;;8.80;90.40;;;;;;5097012;28;20224;-76
2023/11/03 06:27:38;;;;;;;3.85;1.27;;;8.80;90.10;;;;;;5096043;28;20182;-76
2023/11/03 06:30:07;;;;;;;2.63;0.90;;;8.80;90.10;;;;;;5096324;28;20246;-75
2023/11/03 06:32:34;;;;;;;4.20;2.15;;;8.90;90.10;;;;;;5096630;28;20611;-76
2023/11/03 06:35:01;;;;;;;4.38;1.23;;;8.80;90.10;;;;;;5093049;28;20186;-76
2023/11/03 06:37:28;;;;;;;2.80;0.93;;;8.90;90.30;;;;;;5095623;28;20189;-76
2023/11/03 06:39:55;;;;;;;3.10;1.20;;;8.90;90.50;;;;;;5095595;28;20233;-76
2023/11/03 06:42:24;;;;;;;4.75;1.13;;;8.90;90.70;;;;;;5095321;28;20193;-76
2023/11/03 06:44:51;;;;;;;2.83;1.10;;;8.90;90.80;;;;;;5095999;28;20204;-76
2023/11/03 06:47:17;;;;;;;6.30;1.42;;;8.90;90.90;;;;;;5095673;28;20573;-76
2023/11/03 06:49:45;;;;;;;2.83;1.10;;;8.90;91.10;;;;;;5095526;28;20236;-75
2023/11/03 06:52:12;;;;;;;3.03;1.20;;;9.00;91.00;;;;;;5095239;28;20428;-75
2023/11/03 06:54:39;;;;;;;7.57;1.17;;;8.90;90.90;;;;;;5095574;28;20221;-76
2023/11/03 06:57:06;;;;;;;5.05;1.30;;;8.90;91.10;;;;;;5095030;28;20189;-76
2023/11/03 06:59:35;;;;;;;3.10;0.98;;;8.90;91.20;;;;;;5094787;28;20755;-76
2023/11/03 07:02:02;;;;;;;3.47;1.13;;;9.00;91.50;;;;;;5094903;28;20196;-76
2023/11/03 07:04:44;;;;;;;2.13;0.85;;;9.00;91.60;;;;;;5088493;28;20210;-75
2023/11/03 07:07:11;;;;;;;3.22;1.00;;;9.00;91.70;;;;;;5094961;28;20277;-76
2023/11/03 07:09:38;;;;;;;3.10;1.65;;;9.00;91.70;;;;;;5094616;28;20186;-76
2023/11/03 07:12:07;;;;;;;4.30;1.20;;;9.00;91.70;;;;;;5094248;28;20189;-76
2023/11/03 07:14:35;;;;;;;2.40;1.00;;;9.10;91.70;;;;;;5094742;28;20224;-76
2023/11/03 07:17:03;;;;;;;6.30;1.58;;;9.10;91.60;;;;;;5093334;28;20251;-76
2023/11/03 07:19:30;;;;;;;5.60;1.00;;;9.10;91.70;;;;;;5091367;28;20225;-76
2023/11/03 07:21:57;;;;;;;3.95;1.20;;;9.10;92.00;;;;;;5094269;28;20186;-76
2023/11/03 07:24:26;;;;;;;2.65;1.38;;;9.10;92.00;;;;;;5094707;28;20575;-76
2023/11/03 07:26:53;;;;;;;3.13;1.25;;;9.10;92.10;;;;;;5091161;28;20217;-76
2023/11/03 07:29:20;;;;;;;2.83;1.17;;;9.20;92.20;;;;;;5093974;28;20193;-76
2023/11/03 07:31:49;;;;;;;5.70;1.30;;;9.20;92.10;;;;;;5094386;28;20729;-76
2023/11/03 07:34:18;;;;;;;3.70;1.10;;;9.20;91.60;;;;;;5094094;28;20217;-76
2023/11/03 07:36:45;;;;;;;4.60;1.48;;;9.20;90.90;;;;;;5094098;28;20575;-76
2023/11/03 07:39:13;;;;;;;3.17;1.52;;;9.20;90.50;;;;;;5093839;28;20213;-76
2023/11/03 07:41:40;;;;;;;4.57;1.80;;;9.30;90.40;;;;;;5093933;28;20235;-76
2023/11/03 07:44:07;;;;;;;5.30;2.08;;;9.30;90.20;;;;;;5094344;28;20213;-76
2023/11/03 07:46:34;;;;;;;5.00;2.20;;;9.30;90.40;;;;;;5094302;28;20197;-76
2023/11/03 07:49:03;;;;;;;4.85;2.40;;;9.30;90.70;;;;;;5092889;28;20652;-76
2023/11/03 07:51:30;;;;;;;3.65;1.70;;;9.30;90.90;;;;;;5093391;28;20197;-76
2023/11/03 07:53:57;;;;;;;4.72;1.65;;;9.30;90.60;;;;;;5094217;28;20181;-76
2023/11/03 07:56:25;;;;;;;7.90;1.63;;;9.40;87.30;;;;;;5093979;28;20239;-76
2023/11/03 07:58:55;;;;;;;5.50;3.08;;;9.40;86.10;;;;;;5093588;28;20209;-76
2023/11/03 08:01:22;;;;;;;8.05;3.65;;;9.40;86.10;;;;;;5094249;28;20220;-75
2023/11/03 08:03:49;;;;;;;3.88;2.00;;;9.40;86.50;;;;;;5094068;28;20213;-75
2023/11/03 08:06:18;;;;;;;3.25;1.55;;;9.40;87.30;;;;;;5091315;28;20251;-75
2023/11/03 08:08:45;;;;;;;4.60;1.92;;;9.50;87.40;;;;;;5093830;28;20197;-75
2023/11/03 08:11:12;;;;;;;3.00;1.48;;;9.50;87.00;;;;;;5093453;28;20708;-75
2023/11/03 08:13:40;;;;;;;3.00;1.33;;;9.50;87.50;;;;;;5092604;28;20606;-75
2023/11/03 08:16:10;;;;;;;7.30;1.73;;;9.50;87.80;;;;;;5094398;28;20196;-75
2023/11/03 08:18:37;;;;;;;4.43;1.60;;;9.50;87.80;;;;;;5094594;28;20276;-75
2023/11/03 08:21:04;;;;;;;4.55;1.55;;;9.60;88.20;;;;;;5094895;28;20217;-75
2023/11/03 08:23:35;;;;;;;4.80;1.48;;;9.60;86.00;;;;;;5094157;28;20250;-75
2023/11/03 08:26:02;;;;;;;4.03;1.83;;;9.60;83.80;;;;;;5094152;28;20204;-76
2023/11/03 08:28:29;;;;;;;3.15;1.58;;;9.60;84.30;;;;;;5093345;28;20189;-75
2023/11/03 08:30:56;;;;;;;4.07;1.13;;;9.70;85.20;;;;;;5094248;28;20185;-75
2023/11/03 08:33:24;;;;;;;10.30;1.83;;;9.70;85.60;;;;;;5093972;28;20194;-75
2023/11/03 08:35:52;;;;;;;9.63;1.70;;;9.80;85.90;;;;;;5093944;28;20196;-75
2023/11/03 08:38:19;;;;;;;4.05;1.42;;;9.80;85.80;;;;;;5094148;28;20190;-75
2023/11/03 08:40:48;;;;;;;9.25;1.40;;;9.90;84.80;;;;;;5093852;28;20237;-75
2023/11/03 08:43:20;;;;;;;5.18;1.42;;;9.90;83.80;;;;;;5093755;28;20690;-76
2023/11/03 08:45:49;;;;;;;2.67;1.15;;;9.90;83.00;;;;;;5093929;28;20189;-75
2023/11/03 08:48:16;;;;;;;4.75;1.45;;;9.90;83.20;;;;;;5094227;28;20194;-76
2023/11/03 08:50:43;;;;;;;3.80;1.13;;;9.90;83.90;;;;;;5094394;28;20197;-76
2023/11/03 08:53:10;;;;;;;5.03;1.58;;;9.90;83.70;;;;;;5093690;28;20597;-75
2023/11/03 08:55:40;;;;;;;2.75;1.40;;;9.90;82.60;;;;;;5094056;28;20546;-75
2023/11/03 08:58:09;;;;;;;6.55;1.70;;;10.00;79.90;;;;;;5094240;28;20194;-75
2023/11/03 09:00:38;;;;;;;6.85;2.20;;;9.90;80.00;;;;;;5093533;28;20237;-75
2023/11/03 09:03:05;;;;;;;5.22;1.98;;;9.90;80.80;;;;;;5093500;28;20276;-75
2023/11/03 09:05:32;;;;;;;3.42;1.70;;;10.00;80.30;;;;;;5093913;28;20193;-76
2023/11/03 09:07:59;;;;;;;2.42;1.00;;;10.00;80.00;;;;;;5093454;28;20185;-75
2023/11/03 09:10:28;;;;;;;7.35;1.25;;;10.00;78.70;;;;;;5093844;28;20193;-75
2023/11/03 09:12:55;;;;;;;3.17;1.00;;;10.00;77.50;;;;;;5093685;28;20200;-75
2023/11/03 09:15:27;;;;;;;4.90;1.65;;;10.10;77.40;;;;;;5093859;28;20194;-76
2023/11/03 09:17:57;;;;;;;2.95;1.40;;;10.10;78.40;;;;;;5093722;28;20186;-76
2023/11/03 09:20:27;;;;;;;5.47;1.98;;;10.10;78.80;;;;;;5093407;28;20306;-75
2023/11/03 09:22:54;;;;;;;3.53;1.30;;;10.20;79.10;;;;;;5093805;28;20204;-75
2023/11/03 09:25:21;;;;;;;6.47;1.65;;;10.20;79.40;;;;;;5093647;28;20612;-75
2023/11/03 09:27:49;;;;;;;2.83;1.52;;;10.20;77.70;;;;;;5093398;28;20235;-75
2023/11/03 09:30:16;;;;;;;3.97;1.83;;;10.20;78.00;;;;;;5093512;28;20197;-76
2023/11/03 09:32:47;;;;;;;4.85;1.83;;;10.20;77.70;;;;;;5093375;28;20190;-75
2023/11/03 09:35:14;;;;;;;5.53;1.65;;;10.30;77.70;;;;;;5093216;28;20624;-75
2023/11/03 09:37:41;;;;;;;3.72;1.50;;;10.30;76.70;;;;;;5093451;28;20193;-75
2023/11/03 09:40:10;;;;;;;4.00;1.23;;;10.40;75.50;;;;;;5096618;28;20209;-76
2023/11/03 09:42:37;;;;;;;16.65;2.30;;;10.50;74.90;;;;;;5097573;28;20553;-75
2023/11/03 09:45:12;;;;;;;3.35;1.25;;;10.50;74.60;;;;;;5097219;28;20189;-75
2023/11/03 09:47:39;;;;;;;5.22;1.70;;;10.60;73.00;;;;;;5097255;28;20181;-75
2023/11/03 09:50:10;;;;;;;5.18;1.45;;;10.60;73.30;;;;;;5097538;28;20205;-75
2023/11/03 09:52:44;;;;;;;2.90;1.55;;;10.60;73.40;;;;;;5097569;28;20616;-76
2023/11/03 09:55:15;;;;;;;5.13;1.58;;;10.60;75.30;;;;;;5097474;28;20684;-76
2023/11/03 09:57:43;;;;;;;4.43;1.27;;;10.70;73.50;;;;;;5097255;28;20208;-75
2023/11/03 10:00:19;;;;;;;3.83;1.05;;;10.70;72.20;;;;;;5097467;28;20227;-75
2023/11/03 10:02:47;;;;;;;3.03;1.30;;;10.80;73.20;;;;;;5097337;28;20276;-75
2023/11/03 10:05:19;;;;;;;3.53;1.20;;;10.80;71.70;;;;;;5096846;28;20694;-76
2023/11/03 10:07:55;;;;;;;4.28;1.40;;;10.80;71.50;;;;;;5097126;28;20246;-76
2023/11/03 10:10:22;;;;;;;3.30;1.40;;;10.80;71.10;;;;;;5096967;28;20561;-76
2023/11/03 10:12:49;;;;;;;5.50;2.55;;;10.90;71.30;;;;;;5096991;28;20438;-75
2023/11/03 10:15:17;;;;;;;3.47;1.30;;;10.90;72.30;;;;;;5096758;28;20193;-75
2023/11/03 10:17:47;;;;;;;3.75;1.17;;;11.00;71.10;;;;;;5096624;28;20432;-76
2023/11/03 10:20:15;;;;;;;2.33;0.77;;;11.00;68.90;;;;;;5096352;28;20236;-76
2023/11/03 10:22:47;;;;;;;2.97;0.90;;;10.90;68.80;;;;;;5096861;28;20450;-76
2023/11/03 10:25:15;;;;;;;2.75;0.90;;;10.90;68.80;;;;;;5096538;28;20643;-75
2023/11/03 10:27:42;;;;;;;2.10;0.90;;;10.90;70.10;;;;;;5096726;28;20717;-75
2023/11/03 10:30:11;;;;;;;2.63;0.90;;;10.90;69.00;;;;;;5096893;28;20254;-76
2023/11/03 10:32:38;;;;;;;2.50;1.00;;;10.90;69.30;;;;;;5096370;28;20276;-75
2023/11/03 10:35:09;;;;;;;3.38;0.93;;;10.90;68.50;;;;;;5096600;28;20193;-75
2023/11/03 10:37:36;;;;;;;2.78;0.80;;;10.90;67.30;;;;;;5096834;28;20189;-76
2023/11/03 10:40:06;;;;;;;2.20;0.95;;;11.00;68.20;;;;;;5096423;28;20638;-76
2023/11/03 10:42:39;;;;;;;3.00;0.90;;;11.00;67.20;;;;;;5096629;28;20206;-75
2023/11/03 10:45:08;;;;;;;2.60;1.00;;;11.10;68.10;;;;;;5096125;28;20231;-75
2023/11/03 10:47:47;;;;;;;3.60;1.10;;;11.10;68.40;;;;;;5096494;28;20460;-75
2023/11/03 10:50:18;;;;;;;2.40;1.10;;;11.10;69.20;;;;;;5095700;28;20639;-76
2023/11/03 10:52:52;;;;;;;4.78;1.30;;;11.10;65.80;;;;;;5095970;28;20435;-76
2023/11/03 10:55:27;;;;;;;2.10;0.90;;;11.20;66.60;;;;;;5095977;28;20181;-75
2023/11/03 10:57:57;;;;;;;4.47;1.93;;;11.20;65.70;;;;;;5095954;28;20182;-76
2023/11/03 11:00:30;;;;;;;2.00;1.00;;;11.10;65.80;;;;;;5096080;28;20805;-75
2023/11/03 11:03:09;;;;;;;2.27;1.07;;;11.20;64.90;;;;;;5095777;28;20898;-76
2023/11/03 11:05:57;;;;;;;4.00;1.30;;;11.20;66.10;;;;;;5095683;28;20459;-75
2023/11/03 11:08:27;;;;;;;2.77;1.17;;;11.30;66.60;;;;;;5095982;28;20459;-75
2023/11/03 11:10:59;;;;;;;5.20;1.10;;;11.30;66.20;;;;;;5095368;28;20443;-75
2023/11/03 11:13:26;;;;;;;3.97;1.10;;;11.30;66.60;;;;;;5095954;28;20824;-75
2023/11/03 11:16:08;;;;;;;3.47;1.30;;;11.30;65.70;;;;;;5095933;28;20845;-75
2023/11/03 11:18:43;;;;;;;2.60;0.90;;;11.30;65.40;;;;;;5095506;28;20689;-75
2023/11/03 11:21:14;;;;;;;2.22;0.90;;;11.20;66.00;;;;;;5095230;28;20502;-75
2023/11/03 11:23:44;;;;;;;1.95;0.75;;;11.20;67.10;;;;;;5095708;28;20209;-75
2023/11/03 11:26:20;;;;;;;4.18;0.90;;;11.10;66.20;;;;;;5095639;28;20198;-75
2023/11/03 11:28:49;;;;;;;3.40;1.30;;;11.10;65.80;;;;;;5095495;28;20256;-75
2023/11/03 11:31:38;;;;;;;1.80;0.73;;;11.00;64.10;;;;;;5095492;28;20439;-75
2023/11/03 11:34:10;;;;;;;3.53;0.93;;;10.90;64.60;;;;;;5095537;28;20450;-76
2023/11/03 11:36:39;;;;;;;4.63;1.23;;;10.80;64.70;;;;;;5095633;28;20199;-76
2023/11/03 11:39:17;;;;;;;2.30;0.95;;;10.70;66.10;;;;;;5095058;28;20239;-75
2023/11/03 11:41:50;;;;;;;3.13;1.27;;;10.70;66.40;;;;;;5095413;28;20292;-76
2023/11/03 11:44:20;;;;;;;2.30;1.15;;;10.60;65.90;;;;;;5095398;28;20578;-75
2023/11/03 11:46:53;;;;;;;3.65;1.50;;;10.60;66.50;;;;;;5095353;28;20232;-75
2023/11/03 11:49:22;;;;;;;2.97;1.05;;;10.50;67.50;;;;;;5095426;28;20189;-75
2023/11/03 11:51:52;;;;;;;3.40;1.42;;;10.40;67.40;;;;;;5095147;28;20553;-75
2023/11/03 11:54:19;;;;;;;3.65;1.17;;;10.40;66.20;;;;;;5095356;28;20200;-75
2023/11/03 11:56:49;;;;;;;3.38;1.10;;;10.30;67.70;;;;;;5095073;28;20266;-75
2023/11/03 11:59:18;;;;;;;3.47;1.05;;;10.30;67.50;;;;;;5094674;28;20189;-75
2023/11/03 12:01:46;;;;;;;2.13;0.90;;;10.20;68.40;;;;;;5093722;28;20247;-75
2023/11/03 12:04:13;;;;;;;2.20;1.00;;;10.20;69.20;;;;;;5092281;28;20177;-75
2023/11/03 12:06:41;;;;;;;2.92;1.20;;;10.10;69.70;;;;;;5094918;28;20190;-75
2023/11/03 12:09:09;;;;;;;2.10;0.90;;;10.00;68.90;;;;;;5094783;28;20284;-75
2023/11/03 12:11:38;;;;;;;2.60;0.73;;;10.00;68.50;;;;;;5094795;28;20296;-75
2023/11/03 12:14:06;;;;;;;2.50;1.10;;;9.90;69.90;;;;;;5093286;28;20735;-75
2023/11/03 12:16:35;;;;;;;3.28;1.02;;;9.80;70.60;;;;;;5094163;28;20196;-75
2023/11/03 12:19:02;;;;;;;5.35;1.33;;;9.80;71.00;;;;;;5089148;28;20194;-75
2023/11/03 12:21:30;;;;;;;4.10;1.40;;;9.70;72.20;;;;;;5094192;28;20268;-75
2023/11/03 12:23:59;;;;;;;3.30;1.13;;;9.70;73.10;;;;;;5092973;28;20263;-75
2023/11/03 12:26:30;;;;;;;4.45;1.30;;;9.80;73.10;;;;;;5093690;28;20611;-76
2023/11/03 12:29:27;;;;;;;2.95;1.00;;;9.80;73.60;;;;;;5088927;28;20181;-75
2023/11/03 12:31:54;;;;;;;2.97;1.13;;;9.80;74.00;;;;;;5090338;28;20284;-75
2023/11/03 12:34:21;;;;;;;2.45;1.00;;;9.90;73.90;;;;;;5093937;28;20224;-75
2023/11/03 12:36:48;;;;;;;2.95;1.25;;;9.90;73.10;;;;;;5093295;28;20246;-75
2023/11/03 12:39:15;;;;;;;3.90;1.85;;;9.80;72.70;;;;;;5091067;28;20189;-75
2023/11/03 12:41:44;;;;;;;2.20;1.27;;;9.90;73.00;;;;;;5093627;28;20209;-75
2023/11/03 12:44:14;;;;;;;2.47;1.00;;;9.90;73.50;;;;;;5090175;28;20275;-75
2023/11/03 12:46:48;;;;;;;5.25;1.10;;;9.90;72.50;;;;;;5093993;28;20189;-75
2023/11/03 12:49:21;;;;;;;3.40;1.40;;;9.90;72.80;;;;;;5089547;28;20185;-75
2023/11/03 12:51:48;;;;;;;7.47;1.25;;;9.90;73.30;;;;;;5092740;28;20177;-76
2023/11/03 12:54:18;;;;;;;2.80;1.17;;;9.90;73.40;;;;;;5093660;28;20190;-75
2023/11/03 12:56:46;;;;;;;3.00;1.10;;;9.90;73.50;;;;;;5093716;28;20193;-76
2023/11/03 12:59:15;;;;;;;3.05;1.23;;;10.00;72.70;;;;;;5093278;28;20385;-75
2023/11/03 13:01:42;;;;;;;2.75;1.45;;;10.10;73.20;;;;;;5093157;28;20216;-75